Terminal Aerodrome Forecast
Issued by NWS

Home | Current Version | Previous Version | Text Only | Print | Product List | Glossary On
Versions: 1 2 3 4 5 6 7 8 9 10 11 12 13 14 15 16 17 18
236
FTUS41 KGYX 231120
TAFLEB
TAF
KLEB 231120Z 2312/2412 VRB03KT P6SM FEW100
     FM231400 30008G15KT P6SM SCT050
     FM232300 36003KT P6SM SCT200
     FM240700 00000KT 2SM BR BKN002=

USA.gov is the U.S. government's official web portal to all federal, state and local government web resources and services.